Time;durP1;ratioP1;P1;durP2;ratioP2;P2;SDS_P1;SDS_P2;PMS_P1;PMS_P2;Temp;Humidity;BMP_temperature;BMP_pressure;BME280_temperature;BME280_humidity;BME280_pressure;Samples;Min_cycle;Max_cycle;Signal;HPM_P1;HPM_P2
2021/10/12 00:00:17;;;;;;;67.95;37.53;;;;;;;5.72;67.16;100221.55;1752028;81;25645;-56
2021/10/12 00:02:47;;;;;;;68.17;36.08;;;;;;;5.66;67.72;100210.57;1751996;81;25823;-55
2021/10/12 00:05:15;;;;;;;63.35;37.00;;;;;;;5.61;67.66;100215.42;1751885;81;25813;-56
2021/10/12 00:07:43;;;;;;;76.00;37.75;;;;;;;5.55;67.99;100216.55;1751970;81;25660;-56
2021/10/12 00:10:11;;;;;;;67.58;37.70;;;;;;;5.51;68.39;100216.03;1751991;81;25677;-55
2021/10/12 00:12:37;;;;;;;67.45;39.25;;;;;;;5.50;69.18;100215.23;1751997;81;25687;-53
2021/10/12 00:15:06;;;;;;;60.28;36.35;;;;;;;5.50;69.52;100219.26;1751946;81;27343;-55
2021/10/12 00:17:33;;;;;;;61.25;35.80;;;;;;;5.51;69.49;100209.32;1752005;81;25755;-55
2021/10/12 00:20:00;;;;;;;66.07;36.80;;;;;;;5.53;69.77;100207.16;1752016;81;25617;-55
2021/10/12 00:22:27;;;;;;;61.40;34.83;;;;;;;5.55;69.93;100211.18;1752081;81;25459;-54
2021/10/12 00:24:53;;;;;;;58.98;35.50;;;;;;;5.59;69.98;100207.41;1752165;81;25675;-55
2021/10/12 00:27:20;;;;;;;64.47;35.65;;;;;;;5.58;70.05;100201.77;1752159;81;28139;-53
2021/10/12 00:29:46;;;;;;;66.82;38.88;;;;;;;5.61;70.20;100202.00;1752084;81;25542;-55
2021/10/12 00:32:13;;;;;;;68.57;39.65;;;;;;;5.65;70.54;100196.87;1752150;81;25613;-55
2021/10/12 00:34:42;;;;;;;67.42;38.53;;;;;;;5.69;70.90;100197.16;1752087;81;26338;-54
2021/10/12 00:37:09;;;;;;;64.07;39.08;;;;;;;5.68;70.98;100192.30;1752154;81;25505;-55
2021/10/12 00:39:36;;;;;;;68.62;40.75;;;;;;;5.68;71.23;100199.56;1752092;81;27535;-55
2021/10/12 00:42:03;;;;;;;68.10;40.00;;;;;;;5.65;70.86;100195.54;1752027;81;25682;-55
2021/10/12 00:44:33;;;;;;;75.50;41.58;;;;;;;5.64;70.88;100190.48;1752134;81;25491;-54
2021/10/12 00:47:01;;;;;;;79.10;41.42;;;;;;;5.58;70.91;100187.83;1752082;81;25707;-55
2021/10/12 00:49:28;;;;;;;76.77;42.03;;;;;;;5.55;70.94;100187.55;1752145;81;25714;-55
2021/10/12 00:51:54;;;;;;;70.22;39.20;;;;;;;5.49;71.56;100185.45;1752117;81;28048;-54
2021/10/12 00:54:22;;;;;;;70.70;39.25;;;;;;;5.42;71.43;100183.07;1752030;81;25752;-55
2021/10/12 00:56:49;;;;;;;71.00;40.83;;;;;;;5.37;71.65;100174.26;1752093;81;25469;-55
2021/10/12 00:59:16;;;;;;;69.10;39.15;;;;;;;5.32;71.78;100171.61;1752074;81;25622;-54
2021/10/12 01:01:43;;;;;;;63.80;38.38;;;;;;;5.27;71.65;100170.30;1752124;81;25235;-55
2021/10/12 01:04:10;;;;;;;67.85;39.25;;;;;;;5.21;71.46;100168.16;1751920;81;27322;-54
2021/10/12 01:06:39;;;;;;;69.58;39.08;;;;;;;5.15;71.52;100163.36;1752012;81;25496;-55
2021/10/12 01:09:05;;;;;;;72.42;40.03;;;;;;;5.11;71.86;100157.48;1752071;81;25540;-55
2021/10/12 01:11:34;;;;;;;69.70;39.58;;;;;;;5.05;71.88;100152.14;1752025;81;25624;-55
2021/10/12 01:14:03;;;;;;;70.03;39.75;;;;;;;5.03;71.90;100152.16;1752243;81;25555;-53
2021/10/12 01:16:31;;;;;;;79.00;41.83;;;;;;;5.01;72.62;100152.44;1752008;81;27940;-55
2021/10/12 01:19:04;;;;;;;72.05;42.43;;;;;;;4.98;73.09;100150.30;1752042;81;25670;-54
2021/10/12 01:21:44;;;;;;;74.12;41.53;;;;;;;4.94;73.02;100141.22;1752116;81;25474;-55
2021/10/12 01:24:13;;;;;;;77.35;41.33;;;;;;;4.93;73.76;100145.52;1751979;81;25612;-54
2021/10/12 01:26:42;;;;;;;74.65;43.45;;;;;;;4.90;73.77;100144.16;1752232;81;25546;-55
2021/10/12 01:29:12;;;;;;;73.57;41.63;;;;;;;4.87;73.60;100147.42;1752066;81;27934;-55
2021/10/12 01:31:40;;;;;;;69.17;40.45;;;;;;;4.83;74.06;100141.78;1751971;81;25622;-56
2021/10/12 01:34:14;;;;;;;75.65;41.18;;;;;;;4.79;73.77;100140.73;1752092;81;25645;-55
2021/10/12 01:36:42;;;;;;;71.90;41.68;;;;;;;4.75;74.12;100137.53;1751982;81;25650;-55
2021/10/12 01:39:09;;;;;;;75.90;41.35;;;;;;;4.72;74.69;100141.57;1752089;81;25230;-54
2021/10/12 01:41:37;;;;;;;73.57;41.98;;;;;;;4.69;74.73;100135.41;1752081;81;27978;-54
2021/10/12 01:44:06;;;;;;;76.57;41.20;;;;;;;4.68;75.45;100134.62;1751947;81;25462;-55
2021/10/12 01:46:32;;;;;;;82.80;42.65;;;;;;;4.66;75.04;100126.58;1752072;81;25482;-55
2021/10/12 01:48:59;;;;;;;70.90;40.28;;;;;;;4.63;75.82;100127.11;1752030;81;25692;-55
2021/10/12 01:51:25;;;;;;;71.55;41.60;;;;;;;4.60;75.69;100129.02;1752053;81;25682;-53
2021/10/12 01:53:52;;;;;;;77.95;42.98;;;;;;;4.57;75.52;100125.55;1752057;81;27338;-56
2021/10/12 01:56:19;;;;;;;70.65;41.70;;;;;;;4.54;75.69;100123.41;1751924;81;25428;-54
2021/10/12 01:58:50;;;;;;;69.77;41.88;;;;;;;4.52;76.08;100119.66;1752017;81;25677;-55
2021/10/12 02:01:24;;;;;;;72.60;42.10;;;;;;;4.51;75.99;100123.40;1751602;81;27757;-55
2021/10/12 02:03:51;;;;;;;73.00;42.78;;;;;;;4.52;76.66;100114.84;1751954;81;25604;-57
2021/10/12 02:06:18;;;;;;;74.03;43.25;;;;;;;4.50;76.66;100115.12;1752061;81;28015;-57
2021/10/12 02:08:45;;;;;;;83.78;44.53;;;;;;;4.53;76.60;100116.43;1751926;81;25620;-57
2021/10/12 02:11:12;;;;;;;78.67;44.93;;;;;;;4.55;77.15;100108.95;1752140;81;25476;-55
2021/10/12 02:13:38;;;;;;;79.87;45.92;;;;;;;4.56;77.18;100101.16;1751957;81;27737;-55
2021/10/12 02:16:05;;;;;;;79.45;44.13;;;;;;;4.55;77.29;100102.25;1752071;81;25542;-55
2021/10/12 02:18:32;;;;;;;73.55;42.93;;;;;;;4.57;77.82;100099.55;1752063;81;27950;-55
2021/10/12 02:21:02;;;;;;;76.00;44.13;;;;;;;4.58;77.68;100094.98;1751945;81;25464;-55
2021/10/12 02:23:28;;;;;;;78.60;45.08;;;;;;;4.59;78.40;100085.88;1752001;81;25646;-58
2021/10/12 02:25:55;;;;;;;73.20;43.28;;;;;;;4.59;78.09;100087.22;1752004;81;25679;-55
2021/10/12 02:28:21;;;;;;;75.47;42.67;;;;;;;4.60;78.17;100081.59;1752024;81;25687;-55
2021/10/12 02:30:49;;;;;;;79.58;44.13;;;;;;;4.61;78.23;100085.86;1752026;81;27336;-55
2021/10/12 02:33:15;;;;;;;84.83;44.90;;;;;;;4.61;78.41;100075.14;1751993;81;25551;-55
2021/10/12 02:35:42;;;;;;;79.92;44.50;;;;;;;4.63;78.74;100082.39;1752040;81;25450;-55
2021/10/12 02:38:09;;;;;;;77.85;43.40;;;;;;;4.67;78.71;100079.97;1751993;81;26459;-55
2021/10/12 02:40:35;;;;;;;78.80;44.60;;;;;;;4.68;79.10;100081.03;1751993;81;25525;-55
2021/10/12 02:43:02;;;;;;;79.35;44.58;;;;;;;4.71;78.82;100082.34;1751972;81;27352;-55
2021/10/12 02:45:29;;;;;;;76.05;43.58;;;;;;;4.74;79.05;100082.34;1751900;81;25829;-55
2021/10/12 02:47:56;;;;;;;82.65;44.75;;;;;;;4.77;79.04;100085.83;1751982;81;25496;-55
2021/10/12 02:50:22;;;;;;;79.45;43.83;;;;;;;4.79;79.43;100089.02;1752059;81;25704;-54
2021/10/12 02:52:49;;;;;;;78.85;44.33;;;;;;;4.79;79.19;100087.14;1752039;81;25550;-55
2021/10/12 02:55:16;;;;;;;78.62;44.50;;;;;;;4.79;79.30;100087.69;1752018;81;27326;-54
2021/10/12 02:57:42;;;;;;;78.87;43.17;;;;;;;4.81;79.33;100089.55;1751915;81;25719;-54
2021/10/12 03:00:10;;;;;;;80.15;45.05;;;;;;;4.84;79.92;100090.34;1751965;81;25461;-54
2021/10/12 03:02:37;;;;;;;84.83;46.50;;;;;;;4.87;80.11;100087.12;1751925;81;26211;-54
2021/10/12 03:05:05;;;;;;;86.10;45.48;;;;;;;4.94;80.23;100090.80;1751979;81;25463;-55
2021/10/12 03:07:31;;;;;;;82.02;45.17;;;;;;;4.97;80.43;100088.41;1751994;81;27994;-55
2021/10/12 03:09:58;;;;;;;80.60;45.38;;;;;;;5.03;80.77;100087.28;1751893;81;25462;-55
2021/10/12 03:12:25;;;;;;;87.78;47.13;;;;;;;5.09;80.72;100090.75;1752002;81;25469;-55
2021/10/12 03:14:51;;;;;;;88.50;45.80;;;;;;;5.17;80.76;100083.98;1751975;81;25620;-55
2021/10/12 03:17:18;;;;;;;86.08;47.20;;;;;;;5.23;80.87;100078.31;1752025;81;25656;-55
2021/10/12 03:19:44;;;;;;;86.47;47.95;;;;;;;5.30;81.11;100084.72;1751961;81;27327;-55
2021/10/12 03:22:13;;;;;;;88.40;45.80;;;;;;;5.36;81.02;100084.13;1751872;81;25515;-55
2021/10/12 03:24:39;;;;;;;91.50;47.20;;;;;;;5.42;81.21;100079.80;1751883;79;25494;-55
2021/10/12 03:27:09;;;;;;;91.72;45.90;;;;;;;5.50;81.25;100081.09;1752039;81;25640;-55
2021/10/12 03:29:37;;;;;;;87.90;47.20;;;;;;;5.57;81.24;100078.09;1752017;81;25710;-55
2021/10/12 03:32:05;;;;;;;83.78;44.55;;;;;;;5.62;81.41;100074.03;1752001;81;27343;-56
2021/10/12 03:34:33;;;;;;;92.42;45.90;;;;;;;5.68;81.37;100069.41;1752032;81;25703;-55
2021/10/12 03:37:00;;;;;;;82.10;44.38;;;;;;;5.73;81.38;100068.02;1751966;81;25535;-55
2021/10/12 03:39:28;;;;;;;87.72;46.33;;;;;;;5.78;81.56;100059.38;1751912;81;26315;-55
2021/10/12 03:41:55;;;;;;;83.67;46.20;;;;;;;5.85;81.32;100059.59;1752002;81;25636;-55
2021/10/12 03:44:24;;;;;;;82.15;44.53;;;;;;;5.91;81.33;100058.48;1751941;81;27350;-54
2021/10/12 03:46:52;;;;;;;82.72;45.00;;;;;;;5.97;81.24;100053.33;1751898;81;25522;-54
2021/10/12 03:49:18;;;;;;;82.37;44.03;;;;;;;6.03;81.20;100064.81;1751972;81;25677;-55
2021/10/12 03:51:45;;;;;;;79.25;43.80;;;;;;;6.08;81.13;100055.36;1751930;81;25766;-54
2021/10/12 03:54:13;;;;;;;79.42;42.45;;;;;;;6.13;81.16;100045.91;1752072;81;25534;-56
2021/10/12 03:56:41;;;;;;;82.08;42.10;;;;;;;6.17;81.04;100046.41;1751948;81;27313;-55
2021/10/12 03:59:09;;;;;;;73.78;40.75;;;;;;;6.23;81.12;100045.00;1751885;81;25695;-55
2021/10/12 04:01:36;;;;;;;82.57;42.75;;;;;;;6.28;81.03;100038.23;1751975;81;25625;-55
2021/10/12 04:04:04;;;;;;;82.17;42.08;;;;;;;6.32;81.12;100045.44;1749066;81;25543;-56
2021/10/12 04:06:32;;;;;;;85.17;41.83;;;;;;;6.36;80.99;100037.05;1741906;82;25677;-54
2021/10/12 04:08:59;;;;;;;87.42;42.20;;;;;;;6.41;81.16;100036.20;1741834;82;27457;-55
2021/10/12 04:11:26;;;;;;;76.22;40.55;;;;;;;6.45;81.17;100034.56;1741776;82;25695;-56
2021/10/12 04:13:53;;;;;;;81.47;38.88;;;;;;;6.49;81.25;100035.57;1741849;82;25597;-55
2021/10/12 04:16:19;;;;;;;74.67;39.27;;;;;;;6.51;81.17;100030.70;1741833;82;26359;-55
2021/10/12 04:18:46;;;;;;;74.95;38.75;;;;;;;6.56;81.08;100031.74;1741904;81;25712;-54
2021/10/12 04:21:13;;;;;;;73.95;38.42;;;;;;;6.60;81.22;100034.89;1741863;82;27469;-54
2021/10/12 04:23:40;;;;;;;80.07;39.50;;;;;;;6.60;81.14;100026.83;1741849;82;26176;-54
2021/10/12 04:26:12;;;;;;;74.25;37.67;;;;;;;6.62;81.19;100024.64;1741844;81;25504;-54
2021/10/12 04:28:38;;;;;;;77.97;37.97;;;;;;;6.65;81.22;100026.77;1741344;82;25746;-55
2021/10/12 04:31:04;;;;;;;71.87;36.53;;;;;;;6.68;81.29;100026.19;1742145;81;25653;-54
2021/10/12 04:33:31;;;;;;;75.10;37.67;;;;;;;6.71;81.19;100022.14;1741860;82;27693;-54
2021/10/12 04:35:57;;;;;;;81.47;38.85;;;;;;;6.72;81.16;100015.12;1741781;81;25472;-56
2021/10/12 04:38:24;;;;;;;70.72;36.73;;;;;;;6.77;81.20;100017.48;1741828;81;25678;-54
2021/10/12 04:40:51;;;;;;;77.30;38.55;;;;;;;6.78;81.41;100013.72;1741803;82;26222;-55
2021/10/12 04:43:18;;;;;;;76.10;38.48;;;;;;;6.78;81.22;100015.85;1741868;82;25649;-54
2021/10/12 04:45:45;;;;;;;82.53;37.75;;;;;;;6.75;81.25;100001.64;1741868;82;28044;-55
2021/10/12 04:48:15;;;;;;;77.35;37.55;;;;;;;6.83;81.48;100009.61;1741775;82;25472;-55
2021/10/12 04:50:41;;;;;;;78.78;38.90;;;;;;;6.84;81.33;100009.30;1741990;82;25635;-55
2021/10/12 04:53:08;;;;;;;75.50;36.60;;;;;;;6.87;81.58;100007.38;1741823;82;26206;-54
2021/10/12 04:55:40;;;;;;;77.95;37.15;;;;;;;6.88;81.53;100004.95;1741864;82;25692;-55
2021/10/12 04:58:04;;;;;;;78.72;37.65;;;;;;;6.90;81.55;100003.32;1741451;82;27455;-55
2021/10/12 05:00:33;;;;;;;77.97;36.88;;;;;;;6.94;81.53;99998.95;1741780;81;25681;-55
2021/10/12 05:03:01;;;;;;;74.00;35.33;;;;;;;6.97;81.55;99994.89;1741812;82;25641;-55
2021/10/12 05:05:28;;;;;;;77.80;37.75;;;;;;;6.99;81.66;99991.36;1741765;81;26212;-55
2021/10/12 05:07:55;;;;;;;75.25;35.38;;;;;;;7.00;81.69;99991.59;1741902;81;25618;-55
2021/10/12 05:10:22;;;;;;;72.20;36.38;;;;;;;7.00;81.83;99992.94;1741981;82;28001;-54
2021/10/12 05:12:49;;;;;;;71.55;35.65;;;;;;;7.01;81.73;99993.99;1741907;82;25544;-54
2021/10/12 05:15:21;;;;;;;72.82;34.75;;;;;;;7.03;81.72;99997.22;1741994;81;25534;-55
2021/10/12 05:17:47;;;;;;;70.28;36.45;;;;;;;7.07;81.91;99998.77;1740805;82;25688;-55
2021/10/12 05:20:15;;;;;;;75.40;36.33;;;;;;;7.09;82.14;100004.09;1742026;82;25629;-55
2021/10/12 05:22:42;;;;;;;67.03;34.03;;;;;;;7.10;81.95;99992.26;1741976;82;27911;-55
2021/10/12 05:25:10;;;;;;;74.10;36.68;;;;;;;7.14;81.94;99997.84;1741882;81;25674;-55
2021/10/12 05:27:38;;;;;;;72.75;33.18;;;;;;;7.17;82.13;99992.41;1741979;82;25475;-56
2021/10/12 05:30:09;;;;;;;64.47;32.10;;;;;;;7.18;82.51;99988.64;1741943;82;25647;-55
2021/10/12 05:32:38;;;;;;;64.47;31.27;;;;;;;7.22;82.53;99990.46;1742029;82;25526;-54
2021/10/12 05:35:07;;;;;;;69.35;32.23;;;;;;;7.26;82.43;99988.77;1741974;81;28061;-54
2021/10/12 05:37:34;;;;;;;73.33;33.53;;;;;;;7.29;82.54;99989.53;1742020;82;25589;-55
2021/10/12 05:40:03;;;;;;;66.70;31.70;;;;;;;7.33;82.54;99999.16;1741925;82;25519;-52
2021/10/12 05:42:29;;;;;;;72.42;33.15;;;;;;;7.40;82.98;100001.47;1742174;82;25692;-56
2021/10/12 05:44:56;;;;;;;70.03;32.30;;;;;;;7.40;82.98;100001.47;1741984;82;25505;-56
2021/10/12 05:47:22;;;;;;;70.97;32.50;;;;;;;7.40;82.95;99998.23;1741976;82;27997;-56
2021/10/12 05:49:52;;;;;;;67.67;31.42;;;;;;;7.41;82.72;99997.70;1741831;82;25534;-56
2021/10/12 05:52:22;;;;;;;71.33;30.75;;;;;;;7.45;82.84;99999.48;1741910;82;25671;-55
2021/10/12 05:55:06;;;;;;;64.60;30.97;;;;;;;7.46;82.90;99999.75;1741731;82;25632;-56
2021/10/12 05:57:36;;;;;;;64.58;30.35;;;;;;;7.46;82.81;99992.23;1739071;82;25440;-55
2021/10/12 05:59:53;;;;;;;62.93;31.27;;;;;;;7.50;82.77;100006.69;1739170;82;27308;-55
2021/10/12 06:02:20;;;;;;;57.23;30.68;;;;;;;7.51;82.94;100005.59;1741862;81;25625;-57
2021/10/12 06:04:46;;;;;;;65.42;30.48;;;;;;;7.52;82.94;100005.83;1741810;81;25794;-56
2021/10/12 06:07:15;;;;;;;64.80;31.35;;;;;;;7.54;83.15;100006.33;1741932;81;26148;-57
2021/10/12 07:05:47;;;;;;;54.20;28.45;;;;;;;7.82;83.50;100019.87;1742530;81;25685;-56
2021/10/12 07:08:14;;;;;;;58.20;28.45;;;;;;;7.84;83.56;100018.47;1741911;82;27393;-52
2021/10/12 07:10:41;;;;;;;50.35;27.35;;;;;;;7.89;83.67;100020.27;1741899;82;25516;-56
2021/10/12 07:13:12;;;;;;;54.35;27.30;;;;;;;7.93;83.51;100025.30;1741909;82;25697;-55
2021/10/12 07:15:37;;;;;;;;;;;;;;;7.99;83.62;100021.98;1744403;81;25664;-55
2021/10/12 07:18:04;;;;;;;51.00;24.92;;;;;;;8.05;83.59;100024.81;1741900;82;25660;-54
2021/10/12 07:20:34;;;;;;;49.03;26.97;;;;;;;8.11;83.56;100022.29;1741880;82;28175;-56
2021/10/12 07:23:02;;;;;;;50.65;25.80;;;;;;;8.19;83.59;100019.46;1741766;82;25527;-56
2021/10/12 07:25:29;;;;;;;50.23;25.82;;;;;;;8.25;83.36;100016.90;1741882;81;25547;-55
2021/10/12 07:27:56;;;;;;;49.80;26.05;;;;;;;8.32;83.22;100025.38;1741841;82;25779;-55
2021/10/12 07:30:25;;;;;;;46.35;24.15;;;;;;;8.39;83.32;100021.75;1741872;82;25685;-56
2021/10/12 07:32:51;;;;;;;42.38;23.92;;;;;;;8.48;83.06;100023.22;1741886;82;27961;-56
2021/10/12 07:35:18;;;;;;;43.10;22.58;;;;;;;8.55;82.66;100022.25;1741798;81;25744;-57
2021/10/12 07:37:45;;;;;;;37.93;20.12;;;;;;;8.57;81.88;100022.74;1741892;82;25555;-57
2021/10/12 07:40:13;;;;;;;32.70;18.23;;;;;;;8.60;81.42;100020.01;1741819;82;26170;-57
2021/10/12 07:42:41;;;;;;;30.85;17.00;;;;;;;8.66;81.40;100014.73;1741897;82;25625;-57
2021/10/12 07:45:09;;;;;;;26.97;16.00;;;;;;;8.73;80.80;100015.67;1741838;82;27327;-57
2021/10/12 07:47:36;;;;;;;26.87;16.23;;;;;;;8.78;80.20;100009.64;1741776;82;25632;-57
2021/10/12 07:50:05;;;;;;;29.80;15.98;;;;;;;8.84;80.04;100014.92;1741862;82;25736;-57
2021/10/12 07:52:33;;;;;;;30.05;15.95;;;;;;;8.92;79.88;100010.95;1741836;82;25623;-57
2021/10/12 07:57:37;;;;;;;30.75;16.70;;;;;;;9.08;79.66;100011.94;1741913;82;27340;-56
2021/10/12 08:00:06;;;;;;;28.70;16.80;;;;;;;9.25;80.57;100008.02;1741812;82;25687;-57
2021/10/12 08:02:33;;;;;;;30.97;17.33;;;;;;;9.37;79.57;100008.81;1742121;82;25674;-56
2021/10/12 08:04:59;;;;;;;27.20;14.33;;;;;;;9.49;79.37;100005.55;1741805;81;26186;-56
2021/10/12 08:07:26;;;;;;;25.88;15.18;;;;;;;9.54;78.12;100010.27;1741868;81;25680;-57
2021/10/12 08:09:56;;;;;;;24.05;13.65;;;;;;;9.61;77.85;100009.83;1741853;82;27677;-58
2021/10/12 08:12:22;;;;;;;21.52;12.25;;;;;;;9.69;77.06;100006.95;1741919;82;25632;-56
2021/10/12 08:14:54;;;;;;;20.40;10.95;;;;;;;9.83;77.45;100005.51;1741876;81;25680;-58
2021/10/12 08:17:18;;;;;;;17.67;10.45;;;;;;;9.96;75.50;100000.56;1741900;81;25651;-56
2021/10/12 08:19:45;;;;;;;18.48;10.30;;;;;;;10.15;77.84;99998.14;1741894;82;25660;-59
2021/10/12 08:22:12;;;;;;;16.55;9.98;;;;;;;10.42;77.40;99992.55;1741856;82;27967;-57
2021/10/12 08:24:39;;;;;;;19.00;9.78;;;;;;;10.53;75.08;99998.44;1741759;82;25674;-56
2021/10/12 08:27:05;;;;;;;15.55;9.90;;;;;;;10.51;73.86;99993.91;1741860;82;25637;-57
2021/10/12 08:29:33;;;;;;;15.93;9.40;;;;;;;10.50;72.90;99988.25;1741780;82;25670;-57
2021/10/12 08:31:59;;;;;;;14.83;8.98;;;;;;;10.72;73.33;99991.38;1741872;82;25696;-57
2021/10/12 08:34:26;;;;;;;19.90;8.55;;;;;;;10.92;71.91;99981.06;1741867;82;27266;-58
2021/10/12 08:36:53;;;;;;;17.50;8.33;;;;;;;10.98;70.70;99985.18;1741801;82;25670;-56
2021/10/12 08:39:29;;;;;;;12.43;7.80;;;;;;;11.04;70.98;99986.63;1741794;82;25622;-56
2021/10/12 08:41:55;;;;;;;19.12;8.83;;;;;;;11.09;70.78;99979.69;1740699;82;27899;-57
2021/10/12 08:44:22;;;;;;;11.97;8.08;;;;;;;11.14;70.12;99984.94;1740868;82;25460;-57
2021/10/12 08:46:50;;;;;;;12.93;7.83;;;;;;;11.13;69.33;99987.97;1741982;82;27324;-57
2021/10/12 08:49:17;;;;;;;15.63;7.50;;;;;;;11.11;69.50;99989.64;1741920;82;25630;-56
2021/10/12 08:51:44;;;;;;;13.95;7.90;;;;;;;11.15;69.49;99981.13;1742008;82;25515;-58
2021/10/12 08:54:12;;;;;;;12.10;8.28;;;;;;;11.21;69.51;99979.05;1741956;82;26265;-57
2021/10/12 08:56:40;;;;;;;12.98;6.97;;;;;;;11.25;69.30;99979.98;1742038;82;25628;-57
2021/10/12 08:59:07;;;;;;;12.10;7.75;;;;;;;11.17;67.50;99981.60;1741986;82;27952;-55
2021/10/12 09:01:55;;;;;;;13.58;8.13;;;;;;;11.04;67.62;99985.27;1741907;82;25681;-56
2021/10/12 09:04:24;;;;;;;14.45;9.00;;;;;;;10.95;67.57;99981.78;1741992;81;25609;-56
2021/10/12 09:06:55;;;;;;;21.17;9.00;;;;;;;10.93;68.45;99976.69;1741991;81;25755;-56
2021/10/12 09:09:35;;;;;;;14.63;9.10;;;;;;;11.12;68.25;99976.92;1741988;82;25448;-57
2021/10/12 09:12:03;;;;;;;13.55;9.23;;;;;;;11.09;67.92;99975.63;1741497;82;27314;-57
2021/10/12 09:14:30;;;;;;;16.35;8.80;;;;;;;11.15;67.68;99974.91;1741881;82;25531;-56
2021/10/12 09:17:05;;;;;;;9.73;6.97;;;;;;;11.16;66.47;99976.50;1742002;82;25504;-57
2021/10/12 09:19:34;;;;;;;15.08;7.97;;;;;;;11.33;67.58;99967.00;1741923;82;25673;-56
2021/10/12 09:22:06;;;;;;;11.48;7.53;;;;;;;11.45;66.81;99972.32;1742134;82;25701;-55
2021/10/12 09:24:40;;;;;;;12.82;7.42;;;;;;;11.53;66.29;99976.92;1742003;82;27317;-55
2021/10/12 09:27:10;;;;;;;10.18;6.62;;;;;;;11.57;66.69;99969.16;1741929;82;25494;-52
2021/10/12 09:29:47;;;;;;;11.80;7.17;;;;;;;11.72;66.16;99969.77;1742086;82;25677;-54
2021/10/12 09:32:09;;;;;;;12.82;7.12;;;;;;;11.77;65.97;99976.37;1739986;82;25628;-53
2021/10/12 09:34:38;;;;;;;11.50;6.55;;;;;;;11.87;66.05;99975.22;1742151;81;25524;-55
2021/10/12 09:37:07;;;;;;;9.68;6.25;;;;;;;11.86;64.69;99968.98;1742231;82;27284;-53
2021/10/12 09:39:43;;;;;;;11.12;5.30;;;;;;;11.93;65.04;99954.95;1742006;82;25698;-53
2021/10/12 09:42:15;;;;;;;10.13;5.10;;;;;;;12.14;64.72;99953.67;1742013;82;25511;-54
2021/10/12 09:44:58;;;;;;;8.58;4.62;;;;;;;12.50;66.86;99948.27;1741954;82;25680;-54
2021/10/12 09:47:26;;;;;;;6.95;4.15;;;;;;;13.34;65.08;99947.41;1742036;81;25487;-54
2021/10/12 09:50:13;;;;;;;8.45;3.90;;;;;;;13.81;61.00;99938.30;1742109;82;27963;-54
2021/10/12 09:52:47;;;;;;;6.60;4.25;;;;;;;14.23;61.68;99951.44;1738829;82;25465;-56
2021/10/12 09:55:15;;;;;;;8.13;5.15;;;;;;;15.11;62.09;99947.01;1741967;82;25699;-56
2021/10/12 09:57:43;;;;;;;7.83;4.78;;;;;;;15.54;59.60;99943.25;1741908;81;25602;-55
2021/10/12 10:00:11;;;;;;;11.45;5.85;;;;;;;15.55;57.66;99942.70;1741985;82;25463;-53
2021/10/12 10:02:39;;;;;;;8.20;4.73;;;;;;;15.38;56.45;99938.38;1742194;82;27365;-55
2021/10/12 10:05:08;;;;;;;10.50;5.22;;;;;;;15.16;56.25;99930.20;1741812;82;25749;-55
2021/10/12 10:07:40;;;;;;;6.80;4.72;;;;;;;14.94;55.75;99933.13;1742017;81;25905;-55
2021/10/12 10:10:09;;;;;;;7.25;4.60;;;;;;;14.75;55.61;99935.70;1741929;82;25620;-54
2021/10/12 10:12:36;;;;;;;9.53;4.42;;;;;;;14.68;55.73;99930.85;1742237;82;25696;-52
2021/10/12 10:15:04;;;;;;;8.68;4.35;;;;;;;15.02;57.33;99927.31;1741948;82;27314;-52
2021/10/12 10:17:32;;;;;;;6.50;3.90;;;;;;;15.75;56.46;99930.77;1741848;82;25675;-53
2021/10/12 10:20:04;;;;;;;10.53;5.20;;;;;;;16.00;54.91;99922.38;1741938;82;25495;-52
2021/10/12 10:22:51;;;;;;;8.60;4.87;;;;;;;15.89;53.82;99921.36;1741918;82;25682;-53
2021/10/12 10:25:40;;;;;;;7.17;4.35;;;;;;;15.84;53.14;99918.31;1741838;82;25479;-52
2021/10/12 10:28:24;;;;;;;7.00;3.98;;;;;;;15.82;53.96;99912.43;1741509;82;27962;-53
2021/10/12 10:30:57;;;;;;;9.15;4.30;;;;;;;16.69;55.29;99913.16;1741835;82;25621;-53
2021/10/12 10:33:34;;;;;;;9.08;3.95;;;;;;;18.02;54.39;99912.78;1741934;82;25463;-54
2021/10/12 10:36:04;;;;;;;7.42;3.75;;;;;;;18.83;51.67;99909.34;1741913;82;25604;-56
2021/10/12 10:38:45;;;;;;;7.75;3.60;;;;;;;19.20;49.63;99902.48;1741939;82;25689;-53
2021/10/12 10:41:19;;;;;;;6.58;3.45;;;;;;;19.84;49.46;99896.01;1741937;82;27202;-54
2021/10/12 10:44:01;;;;;;;4.53;2.62;;;;;;;20.59;47.27;99894.85;1741847;82;25640;-53
2021/10/12 10:46:38;;;;;;;5.05;2.95;;;;;;;20.87;45.79;99885.92;1741885;82;25562;-53
2021/10/12 10:49:10;;;;;;;5.15;2.92;;;;;;;21.41;44.91;99893.67;1741884;82;25644;-53
2021/10/12 10:52:04;;;;;;;3.75;2.80;;;;;;;21.87;43.29;99892.70;1742045;82;25664;-53
2021/10/12 10:54:59;;;;;;;8.23;3.27;;;;;;;21.34;39.25;99883.27;1706569;84;27417;-50
2021/10/12 10:57:25;;;;;;;4.83;3.15;;;;;;;20.10;39.44;99890.88;1706714;84;25768;-49
2021/10/12 11:00:20;;;;;;;8.03;4.03;;;;;;;18.97;39.96;99887.59;1706664;84;25773;-50
2021/10/12 11:02:47;;;;;;;8.35;4.22;;;;;;;18.34;40.89;99876.86;1693789;83;25726;-52
2021/10/12 11:05:39;;;;;;;5.22;3.35;;;;;;;17.90;43.27;99885.05;1697424;83;25807;-53
2021/10/12 11:08:22;;;;;;;7.85;3.52;;;;;;;18.38;43.60;99871.42;1693657;83;28045;-51
2021/10/12 11:11:03;;;;;;;4.42;3.02;;;;;;;18.95;44.06;99872.67;1699567;83;25667;-58
2021/10/12 11:13:34;;;;;;;4.47;3.50;;;;;;;19.73;44.38;99868.48;1709312;83;25668;-60
2021/10/12 11:16:10;;;;;;;5.30;2.72;;;;;;;20.00;42.92;99868.86;1710703;83;25617;-57
2021/10/12 11:18:39;;;;;;;6.67;3.20;;;;;;;20.11;42.83;99869.72;1677817;83;25752;-58
2021/10/12 11:21:09;;;;;;;5.70;2.67;;;;;;;19.83;41.30;99866.98;1692794;83;29160;-58
2021/10/12 11:23:41;;;;;;;4.97;3.08;;;;;;;19.71;41.55;99867.27;1674694;84;25797;-58
2021/10/12 11:26:12;;;;;;;8.15;3.00;;;;;;;19.32;41.00;99871.86;1674606;85;25480;-57
2021/10/12 11:28:43;;;;;;;4.95;2.90;;;;;;;18.74;40.58;99867.73;1674620;85;26209;-58
2021/10/12 11:31:16;;;;;;;9.40;3.85;;;;;;;18.11;41.15;99864.62;1702934;82;25772;-58
2021/10/12 11:33:48;;;;;;;5.22;2.92;;;;;;;17.47;41.33;99862.48;1731535;82;27333;-59
2021/10/12 11:36:20;;;;;;;6.60;3.33;;;;;;;16.90;41.60;99862.86;1729438;82;26388;-59
2021/10/12 11:38:57;;;;;;;9.38;3.10;;;;;;;16.32;42.28;99855.45;1735784;82;25707;-60
2021/10/12 11:41:36;;;;;;;7.72;3.40;;;;;;;15.84;43.22;99856.96;1736333;82;26386;-59
2021/10/12 11:44:22;;;;;;;7.47;3.20;;;;;;;15.54;45.23;99854.66;1736792;82;25450;-59
2021/10/12 11:46:55;;;;;;;6.08;2.50;;;;;;;15.52;45.70;99851.51;1736611;82;27983;-59
2021/10/12 11:49:23;;;;;;;4.22;2.67;;;;;;;15.89;46.61;99843.05;1735858;82;25556;-58
2021/10/12 11:51:56;;;;;;;7.40;2.52;;;;;;;16.62;46.85;99842.03;1737028;82;25636;-61
2021/10/12 11:54:25;;;;;;;5.65;2.30;;;;;;;17.32;45.96;99838.22;1735577;82;25702;-59
2021/10/12 11:56:52;;;;;;;3.90;2.37;;;;;;;17.83;45.48;99838.41;1706011;84;25488;-59
2021/10/12 11:59:20;;;;;;;3.00;2.00;;;;;;;18.43;43.56;99828.66;1716600;82;27339;-59
2021/10/12 12:01:47;;;;;;;3.22;1.67;;;;;;;18.29;41.83;99825.95;1736216;82;25720;-59
2021/10/12 12:04:34;;;;;;;3.95;2.55;;;;;;;17.79;40.66;99829.34;1736468;82;25604;-60
2021/10/12 12:07:07;;;;;;;3.37;2.30;;;;;;;17.29;40.75;99825.28;1735160;82;26191;-59
2021/10/12 12:09:40;;;;;;;3.33;1.92;;;;;;;17.01;41.78;99823.42;1750486;81;25644;-59
2021/10/12 12:12:08;;;;;;;4.20;2.30;;;;;;;17.14;43.70;99820.73;1753178;81;27544;-59
2021/10/12 12:14:35;;;;;;;6.55;2.50;;;;;;;17.67;44.02;99819.44;1751890;81;25679;-58
2021/10/12 12:17:25;;;;;;;8.23;2.33;;;;;;;17.80;42.89;99811.02;1752089;81;25533;-59
2021/10/12 12:19:57;;;;;;;4.95;2.12;;;;;;;18.11;42.28;99816.72;1752200;81;26531;-60
2021/10/12 12:22:30;;;;;;;5.40;2.87;;;;;;;17.98;40.69;99803.06;1752191;81;25498;-58
2021/10/12 12:25:21;;;;;;;6.45;2.40;;;;;;;18.00;40.15;99810.34;1752153;81;27326;-58
2021/10/12 12:27:53;;;;;;;4.08;2.45;;;;;;;17.72;39.78;99811.48;1752058;81;25647;-58
2021/10/12 12:30:33;;;;;;;5.20;2.65;;;;;;;17.86;39.88;99810.36;1751814;81;25629;-59